createdAt,value
2022-09-22T00:01:26.527Z,1.92
2022-09-22T00:03:57.013Z,1.90
2022-09-22T00:06:27.067Z,1.83
2022-09-22T00:09:00.572Z,1.52
2022-09-22T00:11:31.593Z,1.93
2022-09-22T00:14:04.992Z,1.77
2022-09-22T00:16:37.487Z,1.80
2022-09-22T00:19:14.853Z,1.98
2022-09-22T00:21:42.538Z,1.77
2022-09-22T00:24:10.073Z,1.98
2022-09-22T00:26:38.553Z,1.90
2022-09-22T00:29:09.389Z,2.00
2022-09-22T00:31:41.831Z,1.75
2022-09-22T00:34:14.774Z,1.80
2022-09-22T00:36:42.067Z,2.00
2022-09-22T00:39:09.716Z,1.73
2022-09-22T00:41:41.889Z,1.70
2022-09-22T00:44:31.631Z,1.92
2022-09-22T00:47:20.377Z,1.70
2022-09-22T00:49:56.834Z,2.17
2022-09-22T00:52:35.574Z,1.88
2022-09-22T00:55:37.875Z,1.67
2022-09-22T00:58:09.155Z,1.90
2022-09-22T01:00:37.228Z,1.75
2022-09-22T01:03:09.058Z,1.80
2022-09-22T01:05:37.811Z,1.80
2022-09-22T01:08:05.883Z,1.98
2022-09-22T01:10:33.324Z,1.92
2022-09-22T01:13:15.018Z,1.63
2022-09-22T01:15:54.829Z,1.70
2022-09-22T01:18:49.338Z,1.80
2022-09-22T01:21:57.324Z,1.60
2022-09-22T01:25:01.467Z,1.77
2022-09-22T01:27:48.999Z,1.73
2022-09-22T01:30:25.122Z,1.60
2022-09-22T01:33:25.514Z,1.63
2022-09-22T01:36:18.927Z,1.85
2022-09-22T01:39:07.788Z,1.50
2022-09-22T01:41:53.446Z,1.70
2022-09-22T01:44:55.063Z,1.63
2022-09-22T01:47:24.660Z,1.80
2022-09-22T01:49:57.038Z,1.70
2022-09-22T01:52:35.026Z,1.52
2022-09-22T01:55:40.870Z,1.95
2022-09-22T01:58:16.798Z,1.50
2022-09-22T02:00:53.363Z,1.70
2022-09-22T02:03:27.252Z,1.70
2022-09-22T02:06:04.155Z,1.70
2022-09-22T02:08:39.964Z,1.42
2022-09-22T02:11:13.981Z,1.80
2022-09-22T02:13:46.406Z,1.88
2022-09-22T02:16:17.589Z,1.92
2022-09-22T02:19:13.073Z,1.80
2022-09-22T02:21:43.278Z,1.80
2022-09-22T02:24:35.036Z,1.70
2022-09-22T02:27:12.992Z,1.95
2022-09-22T02:29:51.654Z,1.88
2022-09-22T02:32:20.934Z,1.80
2022-09-22T02:34:48.751Z,1.65
2022-09-22T02:37:23.056Z,2.13
2022-09-22T02:40:06.957Z,1.90
2022-09-22T02:42:47.279Z,2.00
2022-09-22T02:45:39.107Z,1.83
2022-09-22T02:48:40.385Z,1.80
2022-09-22T02:51:08.241Z,1.90
2022-09-22T02:53:36.666Z,2.08
2022-09-22T02:56:04.858Z,1.67
2022-09-22T02:58:32.142Z,2.00
2022-09-22T03:00:59.406Z,1.80
2022-09-22T03:03:26.619Z,1.80
2022-09-22T03:05:53.875Z,1.73
2022-09-22T03:08:21.259Z,1.90
2022-09-22T03:10:48.476Z,2.40
2022-09-22T03:13:17.197Z,1.80
2022-09-22T03:15:46.099Z,2.13
2022-09-22T03:18:14.192Z,1.65
2022-09-22T03:20:41.527Z,2.10
2022-09-22T03:23:08.840Z,1.83
2022-09-22T03:25:36.101Z,1.80
2022-09-22T03:28:03.469Z,1.80
2022-09-22T03:30:31.162Z,2.20
2022-09-22T03:32:58.681Z,1.95
2022-09-22T03:35:26.174Z,2.30
2022-09-22T03:37:53.675Z,2.10
2022-09-22T03:40:22.526Z,2.53
2022-09-22T03:42:49.792Z,2.10
2022-09-22T03:45:17.175Z,2.05
2022-09-22T03:47:44.793Z,2.08
2022-09-22T03:50:12.064Z,2.28
2022-09-22T03:52:41.635Z,2.10
2022-09-22T03:55:09.804Z,2.38
2022-09-22T03:57:37.180Z,2.15
2022-09-22T04:00:06.023Z,2.20
2022-09-22T04:02:33.336Z,2.10
2022-09-22T04:05:00.685Z,2.25
2022-09-22T04:07:28.103Z,2.22
2022-09-22T04:09:55.442Z,2.45
2022-09-22T04:12:22.936Z,2.30
2022-09-22T04:14:50.217Z,2.30
2022-09-22T04:17:19.652Z,2.40
2022-09-22T04:19:47.910Z,2.30
2022-09-22T04:22:15.214Z,2.65
2022-09-22T04:24:42.510Z,2.40
2022-09-22T04:27:19.566Z,2.80
2022-09-22T04:29:48.093Z,2.70
2022-09-22T04:32:15.708Z,2.30
2022-09-22T04:34:43.372Z,2.80
2022-09-22T04:37:11.485Z,3.03
2022-09-22T04:39:38.806Z,2.63
2022-09-22T04:42:06.405Z,2.90
2022-09-22T04:44:35.426Z,3.10
2022-09-22T04:47:03.244Z,3.08
2022-09-22T04:49:31.042Z,2.92
2022-09-22T04:51:58.278Z,3.20
2022-09-22T04:54:25.695Z,3.30
2022-09-22T04:56:53.124Z,3.10
2022-09-22T04:59:20.369Z,2.95
2022-09-22T05:01:47.808Z,3.20
2022-09-22T05:04:15.132Z,3.33
2022-09-22T05:06:42.787Z,3.20
2022-09-22T05:09:10.029Z,2.92
2022-09-22T05:11:38.586Z,3.45
2022-09-22T05:14:05.879Z,3.40
2022-09-22T05:16:33.995Z,3.70
2022-09-22T05:19:01.437Z,3.20
2022-09-22T05:21:28.872Z,3.70
2022-09-22T05:23:56.161Z,3.60
2022-09-22T05:26:24.884Z,3.63
2022-09-22T05:28:52.174Z,3.55
2022-09-22T05:31:19.779Z,3.78
2022-09-22T05:33:47.029Z,3.63
2022-09-22T05:36:14.552Z,3.70
2022-09-22T05:38:42.146Z,3.90
2022-09-22T05:41:09.733Z,3.80
2022-09-22T05:43:37.237Z,3.67
2022-09-22T05:46:04.567Z,3.75
2022-09-22T05:48:31.855Z,3.80
2022-09-22T05:50:59.370Z,4.20
2022-09-22T05:53:27.556Z,3.95
2022-09-22T05:55:56.921Z,4.05
2022-09-22T05:58:24.151Z,4.20
2022-09-22T06:00:51.585Z,4.03
2022-09-22T06:03:19.448Z,4.15
2022-09-22T06:05:46.763Z,4.15
2022-09-22T06:08:14.091Z,4.30
2022-09-22T06:10:41.654Z,4.32
2022-09-22T06:13:11.081Z,4.80
2022-09-22T06:15:38.500Z,4.32
2022-09-22T06:18:11.906Z,4.72
2022-09-22T06:20:43.303Z,4.13
2022-09-22T06:23:12.702Z,4.07
2022-09-22T06:25:39.945Z,4.38
2022-09-22T06:28:09.642Z,4.57
2022-09-22T06:30:41.035Z,4.72
2022-09-22T06:33:09.860Z,4.70
2022-09-22T06:35:37.912Z,4.75
2022-09-22T06:38:07.028Z,4.57
2022-09-22T06:40:37.896Z,4.60
2022-09-22T06:43:11.877Z,4.95
2022-09-22T06:45:40.250Z,5.20
2022-09-22T06:48:10.328Z,4.78
2022-09-22T06:50:40.904Z,4.97
2022-09-22T06:53:11.681Z,4.90
2022-09-22T06:55:40.423Z,5.10
2022-09-22T06:58:08.809Z,5.00
2022-09-22T07:00:36.309Z,5.07
2022-09-22T07:03:20.783Z,4.95
2022-09-22T07:05:54.947Z,5.32
2022-09-22T07:08:23.733Z,4.97
2022-09-22T07:10:59.229Z,4.80
2022-09-22T07:13:29.818Z,5.22
2022-09-22T07:16:07.938Z,5.13
2022-09-22T07:18:40.143Z,5.18
2022-09-22T07:21:10.013Z,5.30
2022-09-22T07:23:37.293Z,5.15
2022-09-22T07:26:06.576Z,5.45
2022-09-22T07:28:36.419Z,5.22
2022-09-22T07:31:09.142Z,5.80
2022-09-22T07:33:37.560Z,5.70
2022-09-22T07:36:13.933Z,6.00
2022-09-22T07:38:43.594Z,5.90
2022-09-22T07:41:16.358Z,5.80
2022-09-22T07:43:43.605Z,6.00
2022-09-22T07:46:12.510Z,5.88
2022-09-22T07:48:45.234Z,6.25
2022-09-22T07:51:20.639Z,6.68
2022-09-22T07:54:07.176Z,6.13
2022-09-22T07:56:35.869Z,6.63
2022-09-22T07:59:10.079Z,6.72
2022-09-22T08:01:39.635Z,7.15
2022-09-22T08:04:07.005Z,8.40
2022-09-22T08:06:35.387Z,7.10
2022-09-22T08:09:03.988Z,6.97
2022-09-22T08:11:31.646Z,7.88
2022-09-22T08:14:04.740Z,8.85
2022-09-22T08:16:37.332Z,10.07
2022-09-22T08:19:12.135Z,10.23
2022-09-22T08:21:49.475Z,10.82
2022-09-22T08:24:22.677Z,11.02
2022-09-22T08:26:52.448Z,12.52
2022-09-22T08:29:20.374Z,13.00
2022-09-22T08:31:49.183Z,12.27
2022-09-22T08:34:17.878Z,12.65
2022-09-22T08:36:49.253Z,13.15
2022-09-22T08:39:18.092Z,12.85
2022-09-22T08:42:10.316Z,14.02
2022-09-22T08:45:15.637Z,16.13
2022-09-22T08:48:06.025Z,15.32
2022-09-22T08:51:14.694Z,15.98
2022-09-22T08:53:49.659Z,17.45
2022-09-22T08:56:34.093Z,17.48
2022-09-22T08:59:22.994Z,18.00
2022-09-22T09:02:02.425Z,17.67
2022-09-22T09:05:12.382Z,17.40
2022-09-22T09:08:05.008Z,18.45
2022-09-22T09:11:02.941Z,18.60
2022-09-22T09:13:46.085Z,19.88
2022-09-22T09:16:37.935Z,17.95
2022-09-22T09:19:27.271Z,18.85
2022-09-22T09:22:01.444Z,18.65
2022-09-22T09:27:33.186Z,18.88
2022-09-22T09:30:03.215Z,18.85
2022-09-22T09:32:40.255Z,18.48
2022-09-22T09:35:14.870Z,18.83
2022-09-22T09:40:18.351Z,21.30
2022-09-22T09:42:51.104Z,23.83
2022-09-22T09:45:20.943Z,22.90
2022-09-22T09:48:02.016Z,23.15
2022-09-22T09:50:32.228Z,21.58
2022-09-22T09:53:00.591Z,23.88
2022-09-22T09:55:28.180Z,24.85
2022-09-22T09:58:08.027Z,23.83
2022-09-22T10:00:59.637Z,27.10
2022-09-22T10:03:33.303Z,26.55
2022-09-22T10:06:04.491Z,25.27
2022-09-22T10:08:36.444Z,24.70
2022-09-22T10:11:05.074Z,27.70
2022-09-22T10:13:37.960Z,26.35
2022-09-22T10:16:07.561Z,25.25
2022-09-22T10:18:40.595Z,27.23
2022-09-22T10:21:24.088Z,26.80
2022-09-22T10:23:59.908Z,30.27
2022-09-22T10:26:32.919Z,26.15
2022-09-22T10:29:21.028Z,28.30
2022-09-22T10:32:16.830Z,28.88
2022-09-22T10:34:50.528Z,26.95
2022-09-22T10:37:24.668Z,31.77
2022-09-22T10:40:01.287Z,28.50
2022-09-22T10:42:54.369Z,26.63
2022-09-22T10:45:36.608Z,26.65
2022-09-22T10:48:27.246Z,28.35
2022-09-22T10:51:20.487Z,29.50
2022-09-22T10:54:13.098Z,28.13
2022-09-22T10:57:09.217Z,28.80
2022-09-22T10:59:47.606Z,28.10
2022-09-22T11:02:34.964Z,29.67
2022-09-22T11:05:44.835Z,28.33
2022-09-22T11:08:34.843Z,27.73
2022-09-22T11:11:34.742Z,27.15
2022-09-22T11:14:16.386Z,28.52
2022-09-22T11:17:06.676Z,27.08
2022-09-22T11:19:47.523Z,28.48
2022-09-22T11:22:59.783Z,27.63
2022-09-22T11:26:01.852Z,28.85
2022-09-22T11:28:57.056Z,28.58
2022-09-22T11:32:02.762Z,29.80
2022-09-22T11:34:45.081Z,29.58
2022-09-22T11:37:31.017Z,30.40
2022-09-22T11:40:17.482Z,29.60
2022-09-22T11:43:13.304Z,29.05
2022-09-22T11:45:45.651Z,29.58
2022-09-22T11:48:50.943Z,28.60
2022-09-22T11:51:41.289Z,28.92
2022-09-22T11:54:39.712Z,29.38
2022-09-22T11:57:14.127Z,29.52
2022-09-22T11:59:57.319Z,28.95
2022-09-22T12:02:41.233Z,30.80
2022-09-22T12:05:27.261Z,29.70
2022-09-22T12:08:02.201Z,29.00
2022-09-22T12:10:41.478Z,28.83
2022-09-22T12:13:16.717Z,29.02
2022-09-22T12:15:59.842Z,29.60
2022-09-22T12:18:36.070Z,29.48
2022-09-22T12:21:33.206Z,30.45
2022-09-22T12:24:09.481Z,29.13
2022-09-22T12:26:48.237Z,29.13
2022-09-22T12:29:15.445Z,29.55
2022-09-22T12:31:44.969Z,29.33
2022-09-22T12:34:25.533Z,29.60
2022-09-22T12:36:57.175Z,29.40
2022-09-22T12:39:29.265Z,29.92
2022-09-22T12:42:02.015Z,28.77
2022-09-22T12:44:49.128Z,29.38
2022-09-22T12:47:26.335Z,28.63
2022-09-22T12:50:23.977Z,28.73
2022-09-22T12:52:51.404Z,28.05
2022-09-22T12:55:40.056Z,27.52
2022-09-22T12:58:22.359Z,27.58
2022-09-22T13:01:13.308Z,28.00
2022-09-22T13:03:47.889Z,29.08
2022-09-22T13:08:53.958Z,25.55
2022-09-22T13:12:00.216Z,26.23
2022-09-22T13:15:12.674Z,25.40
2022-09-22T13:17:41.598Z,24.73
2022-09-22T13:20:35.496Z,25.33
2022-09-22T13:23:21.284Z,24.30
2022-09-22T13:25:50.166Z,24.50
2022-09-22T13:28:22.757Z,24.20
2022-09-22T13:31:04.945Z,24.17
2022-09-22T13:33:35.312Z,23.15
2022-09-22T13:36:11.902Z,21.77
2022-09-22T13:38:51.212Z,21.40
2022-09-22T13:41:24.159Z,21.88
2022-09-22T13:43:56.969Z,21.77
2022-09-22T13:46:45.361Z,21.25
2022-09-22T13:49:22.707Z,20.08
2022-09-22T13:51:57.363Z,20.67
2022-09-22T13:54:29.427Z,19.38
2022-09-22T13:56:57.888Z,19.52
2022-09-22T13:59:31.930Z,18.58
2022-09-22T14:02:10.754Z,18.90
2022-09-22T14:04:39.048Z,18.55
2022-09-22T14:07:11.397Z,17.48
2022-09-22T14:09:40.201Z,18.67
2022-09-22T14:12:10.084Z,16.45
2022-09-22T14:14:39.672Z,15.82
2022-09-22T14:17:08.959Z,16.63
2022-09-22T14:19:42.963Z,15.20
2022-09-22T14:22:22.019Z,15.57
2022-09-22T14:24:56.579Z,14.98
2022-09-22T14:29:55.733Z,14.10
2022-09-22T14:32:22.933Z,13.23
2022-09-22T14:34:54.885Z,14.10
2022-09-22T14:37:45.404Z,14.02
2022-09-22T14:40:19.539Z,13.35
2022-09-22T14:42:58.135Z,13.10
2022-09-22T14:45:27.614Z,13.00
2022-09-22T14:48:18.289Z,13.02
2022-09-22T14:50:52.955Z,12.15
2022-09-22T14:53:34.114Z,12.18
2022-09-22T14:56:11.867Z,11.50
2022-09-22T14:58:42.490Z,10.93
2022-09-22T15:01:50.504Z,11.38
2022-09-22T15:04:31.132Z,11.10
2022-09-22T15:06:59.114Z,10.73
2022-09-22T15:09:39.544Z,10.93
2022-09-22T15:12:27.214Z,10.13
2022-09-22T15:14:59.917Z,10.55
2022-09-22T15:17:58.141Z,9.27
2022-09-22T15:20:42.839Z,10.02
2022-09-22T15:23:31.736Z,9.63
2022-09-22T15:26:06.375Z,9.50
2022-09-22T15:28:37.834Z,9.57
2022-09-22T15:31:06.203Z,9.27
2022-09-22T15:33:33.569Z,9.30
2022-09-22T15:36:11.119Z,9.30
2022-09-22T15:38:39.135Z,9.35
2022-09-22T15:41:06.875Z,9.43
2022-09-22T15:43:34.294Z,9.38
2022-09-22T15:46:04.432Z,9.93
2022-09-22T15:48:35.090Z,9.80
2022-09-22T15:51:07.849Z,10.25
2022-09-22T15:53:35.952Z,9.85
2022-09-22T15:56:06.602Z,10.70
2022-09-22T15:58:41.010Z,10.05
2022-09-22T16:01:09.387Z,10.25
2022-09-22T16:03:41.229Z,10.13
2022-09-22T16:06:12.646Z,10.18
2022-09-22T16:08:42.790Z,11.20
2022-09-22T16:11:29.453Z,10.52
2022-09-22T16:14:00.567Z,10.95
2022-09-22T16:16:28.687Z,10.25
2022-09-22T16:18:57.243Z,8.10
2022-09-22T16:21:27.289Z,7.22
2022-09-22T16:23:59.409Z,5.80
2022-09-22T16:26:31.380Z,4.32
2022-09-22T16:28:59.482Z,4.22
2022-09-22T16:31:27.529Z,4.72
2022-09-22T16:33:56.781Z,3.80
2022-09-22T16:36:26.181Z,3.97
2022-09-22T16:38:55.391Z,3.72
2022-09-22T16:41:26.172Z,4.28
2022-09-22T16:43:54.886Z,3.90
2022-09-22T16:46:28.878Z,3.25
2022-09-22T16:48:58.880Z,3.45
2022-09-22T16:51:27.055Z,3.50
2022-09-22T16:53:54.567Z,3.55
2022-09-22T16:56:24.298Z,3.60
2022-09-22T16:58:52.522Z,3.10
2022-09-22T17:01:20.497Z,3.22
2022-09-22T17:03:50.143Z,2.63
2022-09-22T17:06:24.327Z,2.60
2022-09-22T17:08:53.649Z,2.47
2022-09-22T17:11:24.501Z,2.80
2022-09-22T17:13:51.784Z,2.50
2022-09-22T17:16:21.821Z,2.50
2022-09-22T17:19:02.328Z,2.28
2022-09-22T17:21:34.413Z,2.22
2022-09-22T17:24:03.053Z,2.20
2022-09-22T17:26:36.600Z,1.92
2022-09-22T17:29:06.195Z,2.00
2022-09-22T17:31:35.909Z,1.85
2022-09-22T17:34:03.781Z,1.95
2022-09-22T17:36:31.031Z,2.03
2022-09-22T17:39:00.565Z,1.90
2022-09-22T17:41:31.493Z,2.00
2022-09-22T17:44:02.186Z,2.10
2022-09-22T17:46:32.103Z,2.30
2022-09-22T17:49:18.545Z,2.10
2022-09-22T17:52:08.049Z,2.22
2022-09-22T17:54:58.947Z,2.33
2022-09-22T17:57:31.294Z,2.20
2022-09-22T17:59:59.422Z,1.88
2022-09-22T18:02:29.586Z,1.90
2022-09-22T18:04:56.939Z,1.80
2022-09-22T18:07:26.718Z,2.28
2022-09-22T18:09:55.952Z,1.80
2022-09-22T18:12:25.118Z,2.13
2022-09-22T18:14:55.583Z,2.00
2022-09-22T18:17:27.777Z,7.70
2022-09-22T18:19:56.577Z,2.80
2022-09-22T18:22:25.271Z,2.30
2022-09-22T18:24:57.307Z,2.40
2022-09-22T18:27:29.840Z,2.40
2022-09-22T18:29:59.835Z,2.13
2022-09-22T18:32:28.019Z,2.60
2022-09-22T18:34:55.720Z,2.65
2022-09-22T18:37:25.111Z,2.40
2022-09-22T18:39:52.661Z,2.63
2022-09-22T18:42:24.110Z,2.60
2022-09-22T18:44:52.551Z,2.50
2022-09-22T18:47:22.972Z,2.60
2022-09-22T18:49:51.741Z,3.05
2022-09-22T18:52:24.067Z,2.90
2022-09-22T18:54:56.088Z,3.10
2022-09-22T18:57:28.894Z,3.30
2022-09-22T18:59:59.893Z,4.28
2022-09-22T19:02:27.516Z,2.55
2022-09-22T19:04:55.179Z,3.53
2022-09-22T19:07:43.661Z,3.22
2022-09-22T19:10:14.103Z,2.80
2022-09-22T19:12:42.533Z,2.95
2022-09-22T19:15:16.755Z,2.80
2022-09-22T19:17:45.849Z,2.75
2022-09-22T19:20:18.856Z,3.50
2022-09-22T19:22:47.064Z,3.42
2022-09-22T19:25:15.432Z,3.00
2022-09-22T19:27:42.777Z,2.90
2022-09-22T19:30:11.585Z,3.65
2022-09-22T19:32:39.920Z,2.67
2022-09-22T19:35:08.375Z,2.88
2022-09-22T19:37:36.029Z,3.55
2022-09-22T19:40:04.720Z,2.53
2022-09-22T19:42:32.184Z,3.22
2022-09-22T19:44:59.491Z,3.33
2022-09-22T19:47:26.833Z,3.42
2022-09-22T19:49:55.045Z,3.35
2022-09-22T19:52:22.429Z,3.45
2022-09-22T19:54:50.126Z,3.72
2022-09-22T19:57:17.419Z,3.55
2022-09-22T19:59:44.972Z,3.22
2022-09-22T20:02:14.300Z,3.22
2022-09-22T20:04:42.066Z,3.25
2022-09-22T20:07:10.944Z,3.70
2022-09-22T20:09:38.557Z,3.28
2022-09-22T20:12:06.541Z,3.25
2022-09-22T20:14:34.465Z,3.10
2022-09-22T20:17:05.663Z,3.40
2022-09-22T20:19:35.767Z,3.35
2022-09-22T20:22:27.635Z,3.00
2022-09-22T20:25:00.510Z,3.22
2022-09-22T20:27:29.620Z,3.00
2022-09-22T20:29:57.785Z,3.60
2022-09-22T20:32:34.672Z,3.50
2022-09-22T20:35:01.960Z,2.80
2022-09-22T20:37:30.537Z,2.95
2022-09-22T20:39:57.773Z,2.90
2022-09-22T20:42:25.205Z,3.50
2022-09-22T20:44:52.433Z,2.95
2022-09-22T20:47:25.247Z,3.00
2022-09-22T20:49:52.563Z,2.58
2022-09-22T20:52:21.009Z,2.70
2022-09-22T20:54:49.021Z,2.88
2022-09-22T20:57:16.908Z,2.70
2022-09-22T20:59:45.633Z,2.80
2022-09-22T21:02:14.244Z,3.00
2022-09-22T21:04:42.404Z,2.83
2022-09-22T21:07:11.524Z,2.70
2022-09-22T21:09:57.720Z,2.97
2022-09-22T21:12:30.779Z,2.45
2022-09-22T21:14:58.901Z,2.77
2022-09-22T21:17:29.909Z,2.42
2022-09-22T21:19:57.908Z,2.80
2022-09-22T21:22:28.137Z,2.40
2022-09-22T21:24:56.504Z,2.67
2022-09-22T21:27:25.041Z,2.17
2022-09-22T21:29:53.184Z,2.40
2022-09-22T21:32:20.775Z,2.17
2022-09-22T21:34:48.152Z,2.90
2022-09-22T21:37:15.641Z,2.42
2022-09-22T21:39:42.948Z,2.50
2022-09-22T21:42:10.251Z,2.50
2022-09-22T21:44:37.523Z,2.75
2022-09-22T21:47:04.966Z,2.75
2022-09-22T21:49:32.983Z,2.60
2022-09-22T21:52:01.104Z,2.60
2022-09-22T21:54:28.407Z,2.55
2022-09-22T21:56:56.621Z,2.63
2022-09-22T21:59:24.140Z,2.70
2022-09-22T22:01:51.471Z,2.92
2022-09-22T22:04:19.028Z,3.17
2022-09-22T22:06:46.850Z,2.40
2022-09-22T22:09:18.509Z,2.95
2022-09-22T22:11:55.642Z,3.28
2022-09-22T22:14:26.095Z,2.70
2022-09-22T22:16:55.460Z,2.97
2022-09-22T22:19:26.851Z,3.13
2022-09-22T22:21:54.653Z,3.20
2022-09-22T22:24:39.413Z,3.30
2022-09-22T22:27:10.052Z,3.22
2022-09-22T22:29:41.038Z,3.60
2022-09-22T22:32:10.187Z,3.42
2022-09-22T22:34:38.004Z,3.80
2022-09-22T22:37:09.458Z,3.92
2022-09-22T22:39:37.489Z,4.15
2022-09-22T22:42:05.136Z,4.00
2022-09-22T22:44:32.499Z,3.95
2022-09-22T22:46:59.763Z,4.00
2022-09-22T22:49:27.383Z,4.38
2022-09-22T22:51:54.709Z,4.40
2022-09-22T22:54:21.999Z,4.72
2022-09-22T22:56:51.434Z,4.38
2022-09-22T22:59:19.294Z,4.97
2022-09-22T23:01:46.619Z,5.25
2022-09-22T23:04:13.974Z,4.93
2022-09-22T23:06:45.114Z,5.30
2022-09-22T23:09:16.467Z,5.10
2022-09-22T23:11:45.486Z,4.57
2022-09-22T23:14:14.204Z,5.18
2022-09-22T23:16:46.729Z,5.40
2022-09-22T23:19:16.930Z,4.57
2022-09-22T23:21:45.235Z,5.65
2022-09-22T23:24:16.259Z,5.20
2022-09-22T23:26:45.731Z,5.68
2022-09-22T23:32:27.617Z,4.47
2022-09-22T23:34:54.886Z,5.60
2022-09-22T23:37:25.024Z,5.55
2022-09-22T23:39:52.426Z,5.47
2022-09-22T23:42:19.792Z,5.60
2022-09-22T23:44:47.311Z,6.00
2022-09-22T23:47:16.349Z,5.80
2022-09-22T23:49:44.295Z,5.60
2022-09-22T23:52:11.580Z,6.18
2022-09-22T23:54:38.930Z,6.00
2022-09-22T23:57:06.301Z,5.70
2022-09-22T23:59:33.655Z,5.78
